Berrien Springs, MI (49103)

4:19 PM EDT on September 02, 2015 (GMT -0400)
Berrien Springs Public Schools | | Change Station
CLOSE
Current Station
Personal Weather Station
Location: Oronoko Charter Township, MI
Elevation: 669 ft
Nearby Weather Stations

Elev 669 ft 41.95 °N, 86.35 °W | Updated 8 seconds ago

Clear
Clear
87.3 °F
Feels Like 95 °F
N
0.4
Wind Variable Wind from North
Gusts 2.5 mph

Today
High -- | Low -- °F
--% Chance of Precip.
Yesterday
High -- | Low -- °F
Precip. -- in
7:11 AM 8:17 PM
Waning Gibbous, 77% visible
Pressure 30.01 in
Visibility 9.0 miles
Clouds Clear
Heat Index 95 °F
Dew Point 73 °F
Humidity 62%
Rainfall 0.00 in
Snow Depth Not available.
UV 6 out of 12
Pollen 9.30 out of 12
Air Quality Not available.
Flu Activity Not available.
METAR KBEH 021953Z AUTO 27005KT 9SM CLR 29/21 A3002 RMK AO2 SLP160 T02940206
Pressure 30.01 in
Visibility 9.0 miles
Clouds Clear
Heat Index 95 °F
Dew Point 73 °F
Humidity 62%
Rainfall 0.00 in
Snow Depth Not available.
UV 6 out of 12
Pollen 9.30 out of 12
Air Quality Not available.
Flu Activity Not available.
METAR KBEH 021953Z AUTO 27005KT 9SM CLR 29/21 A3002 RMK AO2 SLP160 T02940206

10-Day Weather Forecast

×

Almanac

Astronomy

Sep. 02, 2015 Rise Set
Actual Time
Civil Twilight
Nautical Twilight
Astronomical Twilight
Moon
Length of Visible Light
Length of Day
Tomorrow will be .
, % of the Moon is Illuminated

Today's Extremes

State Highs State Lows

Community

WunderPhotos

Upload Photos

1,851,803 photos uploaded!

WunderBlogs® & News

Nearby

Air Quality

  Air Quality AQ Index Pollutant
Not available.

Snow Depth

Station Depth Elevation

Earthquake Activity

City Distance Mag. Time & Date
Minimum magnitude displayed is 2.5.

Coastal Water Temperatures

Place Temperature

Stations

Nearby Weather Stations

Station Location Temp. Windchill Dew Point Humidity Wind Precip. Elev Updated Type